sensor_id;sensor_type;location;lat;lon;timestamp;P1;durP1;ratioP1;P2;durP2;ratioP2
80425;SDS011;69766;51.476;5.704;2023-12-28T00:02:11;6.13;;;2.25;;
80425;SDS011;69766;51.476;5.704;2023-12-28T00:04:38;4.43;;;2.10;;
80425;SDS011;69766;51.476;5.704;2023-12-28T00:07:08;4.25;;;2.38;;
80425;SDS011;69766;51.476;5.704;2023-12-28T00:09:34;4.75;;;2.45;;
80425;SDS011;69766;51.476;5.704;2023-12-28T00:12:06;7.30;;;2.40;;
80425;SDS011;69766;51.476;5.704;2023-12-28T00:15:25;5.03;;;2.33;;
80425;SDS011;69766;51.476;5.704;2023-12-28T00:20:47;4.35;;;2.22;;
80425;SDS011;69766;51.476;5.704;2023-12-28T00:23:22;3.75;;;2.05;;
80425;SDS011;69766;51.476;5.704;2023-12-28T00:25:49;5.32;;;2.40;;
80425;SDS011;69766;51.476;5.704;2023-12-28T00:28:34;5.75;;;2.35;;
80425;SDS011;69766;51.476;5.704;2023-12-28T00:34:34;5.45;;;2.03;;
80425;SDS011;69766;51.476;5.704;2023-12-28T00:37:11;4.18;;;2.28;;
80425;SDS011;69766;51.476;5.704;2023-12-28T00:42:25;3.92;;;2.30;;
80425;SDS011;69766;51.476;5.704;2023-12-28T00:45:11;3.72;;;2.05;;
80425;SDS011;69766;51.476;5.704;2023-12-28T00:47:37;7.32;;;2.50;;
80425;SDS011;69766;51.476;5.704;2023-12-28T00:50:13;3.88;;;2.00;;
80425;SDS011;69766;51.476;5.704;2023-12-28T00:56:04;7.60;;;2.50;;
80425;SDS011;69766;51.476;5.704;2023-12-28T00:58:38;6.25;;;2.40;;
80425;SDS011;69766;51.476;5.704;2023-12-28T01:01:09;3.88;;;2.33;;
80425;SDS011;69766;51.476;5.704;2023-12-28T01:04:32;3.72;;;2.05;;
80425;SDS011;69766;51.476;5.704;2023-12-28T01:06:57;4.15;;;2.00;;
80425;SDS011;69766;51.476;5.704;2023-12-28T01:09:36;6.22;;;2.58;;
80425;SDS011;69766;51.476;5.704;2023-12-28T01:12:27;4.97;;;2.28;;
80425;SDS011;69766;51.476;5.704;2023-12-28T01:15:16;5.10;;;2.40;;
80425;SDS011;69766;51.476;5.704;2023-12-28T01:18:03;5.25;;;2.38;;
80425;SDS011;69766;51.476;5.704;2023-12-28T01:20:54;4.28;;;1.73;;
80425;SDS011;69766;51.476;5.704;2023-12-28T01:23:25;5.07;;;2.13;;
80425;SDS011;69766;51.476;5.704;2023-12-28T01:29:07;5.53;;;2.47;;
80425;SDS011;69766;51.476;5.704;2023-12-28T01:31:42;7.20;;;2.30;;
80425;SDS011;69766;51.476;5.704;2023-12-28T01:34:07;4.32;;;2.55;;
80425;SDS011;69766;51.476;5.704;2023-12-28T01:36:36;7.15;;;2.35;;
80425;SDS011;69766;51.476;5.704;2023-12-28T01:39:09;6.38;;;2.65;;
80425;SDS011;69766;51.476;5.704;2023-12-28T01:41:39;5.32;;;2.55;;
80425;SDS011;69766;51.476;5.704;2023-12-28T01:44:10;4.05;;;2.17;;
80425;SDS011;69766;51.476;5.704;2023-12-28T01:46:36;5.38;;;2.53;;
80425;SDS011;69766;51.476;5.704;2023-12-28T01:49:15;6.78;;;2.63;;
80425;SDS011;69766;51.476;5.704;2023-12-28T01:51:41;4.78;;;2.50;;
80425;SDS011;69766;51.476;5.704;2023-12-28T01:54:23;5.68;;;2.53;;
80425;SDS011;69766;51.476;5.704;2023-12-28T01:56:58;8.93;;;2.70;;
80425;SDS011;69766;51.476;5.704;2023-12-28T01:59:26;4.82;;;2.30;;
80425;SDS011;69766;51.476;5.704;2023-12-28T02:02:26;6.05;;;2.60;;
80425;SDS011;69766;51.476;5.704;2023-12-28T02:05:01;5.80;;;2.80;;
80425;SDS011;69766;51.476;5.704;2023-12-28T02:08:04;6.20;;;2.05;;
80425;SDS011;69766;51.476;5.704;2023-12-28T02:10:30;5.18;;;2.70;;
80425;SDS011;69766;51.476;5.704;2023-12-28T02:13:06;8.55;;;2.33;;
80425;SDS011;69766;51.476;5.704;2023-12-28T02:15:44;5.93;;;2.22;;
80425;SDS011;69766;51.476;5.704;2023-12-28T02:18:52;3.42;;;2.00;;
80425;SDS011;69766;51.476;5.704;2023-12-28T02:21:52;4.88;;;2.40;;
80425;SDS011;69766;51.476;5.704;2023-12-28T02:24:22;4.65;;;2.75;;
80425;SDS011;69766;51.476;5.704;2023-12-28T02:27:03;4.10;;;2.30;;
80425;SDS011;69766;51.476;5.704;2023-12-28T02:36:29;5.25;;;2.60;;
80425;SDS011;69766;51.476;5.704;2023-12-28T02:41:57;6.97;;;2.53;;
80425;SDS011;69766;51.476;5.704;2023-12-28T02:44:23;12.10;;;2.83;;
80425;SDS011;69766;51.476;5.704;2023-12-28T02:50:14;5.22;;;2.75;;
80425;SDS011;69766;51.476;5.704;2023-12-28T02:52:42;5.03;;;2.30;;
80425;SDS011;69766;51.476;5.704;2023-12-28T02:55:34;6.40;;;2.78;;
80425;SDS011;69766;51.476;5.704;2023-12-28T02:58:03;6.32;;;2.70;;
80425;SDS011;69766;51.476;5.704;2023-12-28T03:01:01;8.00;;;2.80;;
80425;SDS011;69766;51.476;5.704;2023-12-28T03:03:57;6.45;;;2.58;;
80425;SDS011;69766;51.476;5.704;2023-12-28T03:06:52;6.57;;;2.58;;
80425;SDS011;69766;51.476;5.704;2023-12-28T03:09:24;5.50;;;2.67;;
80425;SDS011;69766;51.476;5.704;2023-12-28T03:12:03;5.22;;;2.55;;
80425;SDS011;69766;51.476;5.704;2023-12-28T03:14:34;6.13;;;2.53;;
80425;SDS011;69766;51.476;5.704;2023-12-28T03:20:08;7.65;;;3.20;;
80425;SDS011;69766;51.476;5.704;2023-12-28T03:22:49;5.95;;;2.53;;
80425;SDS011;69766;51.476;5.704;2023-12-28T03:25:30;6.15;;;2.63;;
80425;SDS011;69766;51.476;5.704;2023-12-28T03:28:26;7.20;;;2.90;;
80425;SDS011;69766;51.476;5.704;2023-12-28T03:37:26;6.18;;;2.50;;
80425;SDS011;69766;51.476;5.704;2023-12-28T03:40:09;8.32;;;2.63;;
80425;SDS011;69766;51.476;5.704;2023-12-28T03:42:38;6.32;;;2.70;;
80425;SDS011;69766;51.476;5.704;2023-12-28T03:45:12;6.70;;;2.53;;
80425;SDS011;69766;51.476;5.704;2023-12-28T03:47:59;6.18;;;2.95;;
80425;SDS011;69766;51.476;5.704;2023-12-28T03:54:07;8.05;;;3.05;;
80425;SDS011;69766;51.476;5.704;2023-12-28T03:59:30;5.53;;;2.60;;
80425;SDS011;69766;51.476;5.704;2023-12-28T04:02:08;6.32;;;2.65;;
80425;SDS011;69766;51.476;5.704;2023-12-28T04:04:49;5.60;;;2.75;;
80425;SDS011;69766;51.476;5.704;2023-12-28T04:07:23;9.25;;;2.47;;
80425;SDS011;69766;51.476;5.704;2023-12-28T04:12:59;3.97;;;2.33;;
80425;SDS011;69766;51.476;5.704;2023-12-28T04:15:35;10.63;;;2.63;;
80425;SDS011;69766;51.476;5.704;2023-12-28T04:18:01;6.88;;;2.60;;
80425;SDS011;69766;51.476;5.704;2023-12-28T04:20:42;6.45;;;2.72;;
80425;SDS011;69766;51.476;5.704;2023-12-28T04:26:32;6.72;;;2.35;;
80425;SDS011;69766;51.476;5.704;2023-12-28T04:38:13;4.40;;;2.22;;
80425;SDS011;69766;51.476;5.704;2023-12-28T04:48:32;8.32;;;2.50;;
80425;SDS011;69766;51.476;5.704;2023-12-28T05:10:31;10.70;;;2.10;;
80425;SDS011;69766;51.476;5.704;2023-12-28T05:19:43;5.38;;;2.50;;
80425;SDS011;69766;51.476;5.704;2023-12-28T05:25:55;5.72;;;2.08;;
80425;SDS011;69766;51.476;5.704;2023-12-28T05:32:27;6.57;;;1.70;;
80425;SDS011;69766;51.476;5.704;2023-12-28T05:42:06;5.80;;;1.73;;
80425;SDS011;69766;51.476;5.704;2023-12-28T05:57:20;9.88;;;1.70;;
80425;SDS011;69766;51.476;5.704;2023-12-28T06:00:16;9.45;;;2.42;;
80425;SDS011;69766;51.476;5.704;2023-12-28T06:02:50;10.02;;;1.77;;
80425;SDS011;69766;51.476;5.704;2023-12-28T06:05:20;10.27;;;2.15;;
80425;SDS011;69766;51.476;5.704;2023-12-28T06:07:52;7.72;;;2.05;;
80425;SDS011;69766;51.476;5.704;2023-12-28T06:10:24;13.23;;;2.55;;
80425;SDS011;69766;51.476;5.704;2023-12-28T06:12:53;9.93;;;1.70;;
80425;SDS011;69766;51.476;5.704;2023-12-28T06:16:05;9.27;;;1.92;;
80425;SDS011;69766;51.476;5.704;2023-12-28T06:18:53;8.48;;;1.60;;
80425;SDS011;69766;51.476;5.704;2023-12-28T06:21:28;11.18;;;1.90;;
80425;SDS011;69766;51.476;5.704;2023-12-28T06:24:08;13.05;;;2.03;;
80425;SDS011;69766;51.476;5.704;2023-12-28T06:26:50;19.70;;;2.53;;
80425;SDS011;69766;51.476;5.704;2023-12-28T06:29:27;7.97;;;1.98;;
80425;SDS011;69766;51.476;5.704;2023-12-28T06:32:10;10.23;;;1.65;;
80425;SDS011;69766;51.476;5.704;2023-12-28T06:34:50;9.07;;;1.98;;
80425;SDS011;69766;51.476;5.704;2023-12-28T06:37:21;11.48;;;2.47;;
80425;SDS011;69766;51.476;5.704;2023-12-28T06:40:12;10.45;;;1.65;;
80425;SDS011;69766;51.476;5.704;2023-12-28T06:43:15;14.02;;;2.30;;
80425;SDS011;69766;51.476;5.704;2023-12-28T06:49:37;10.90;;;1.98;;
80425;SDS011;69766;51.476;5.704;2023-12-28T06:54:57;15.23;;;2.15;;
80425;SDS011;69766;51.476;5.704;2023-12-28T06:57:26;10.98;;;2.15;;
80425;SDS011;69766;51.476;5.704;2023-12-28T07:00:07;12.35;;;1.70;;
80425;SDS011;69766;51.476;5.704;2023-12-28T07:02:47;8.13;;;1.90;;
80425;SDS011;69766;51.476;5.704;2023-12-28T07:05:28;10.15;;;1.83;;
80425;SDS011;69766;51.476;5.704;2023-12-28T07:07:59;13.32;;;2.35;;
80425;SDS011;69766;51.476;5.704;2023-12-28T07:10:31;17.40;;;2.28;;
80425;SDS011;69766;51.476;5.704;2023-12-28T07:13:19;11.05;;;1.67;;
80425;SDS011;69766;51.476;5.704;2023-12-28T07:16:04;12.18;;;2.20;;
80425;SDS011;69766;51.476;5.704;2023-12-28T07:18:38;13.25;;;2.22;;
80425;SDS011;69766;51.476;5.704;2023-12-28T07:21:20;14.38;;;2.30;;
80425;SDS011;69766;51.476;5.704;2023-12-28T07:24:02;13.63;;;2.38;;
80425;SDS011;69766;51.476;5.704;2023-12-28T07:26:41;12.95;;;2.10;;
80425;SDS011;69766;51.476;5.704;2023-12-28T07:29:16;13.75;;;2.50;;
80425;SDS011;69766;51.476;5.704;2023-12-28T07:31:45;10.63;;;2.13;;
80425;SDS011;69766;51.476;5.704;2023-12-28T07:34:39;15.38;;;3.47;;
80425;SDS011;69766;51.476;5.704;2023-12-28T07:40:23;13.30;;;2.45;;
80425;SDS011;69766;51.476;5.704;2023-12-28T07:42:54;8.30;;;3.05;;
80425;SDS011;69766;51.476;5.704;2023-12-28T07:45:37;15.95;;;2.53;;
80425;SDS011;69766;51.476;5.704;2023-12-28T07:50:56;10.32;;;2.25;;
80425;SDS011;69766;51.476;5.704;2023-12-28T07:53:41;14.05;;;2.13;;
80425;SDS011;69766;51.476;5.704;2023-12-28T07:56:24;12.63;;;2.22;;
80425;SDS011;69766;51.476;5.704;2023-12-28T07:58:59;9.75;;;1.90;;
80425;SDS011;69766;51.476;5.704;2023-12-28T08:07:06;10.98;;;1.95;;
80425;SDS011;69766;51.476;5.704;2023-12-28T08:09:46;16.42;;;2.70;;
80425;SDS011;69766;51.476;5.704;2023-12-28T08:16:11;10.80;;;2.40;;
80425;SDS011;69766;51.476;5.704;2023-12-28T08:18:55;9.00;;;1.92;;
80425;SDS011;69766;51.476;5.704;2023-12-28T08:24:34;11.15;;;2.15;;
80425;SDS011;69766;51.476;5.704;2023-12-28T08:30:44;8.15;;;2.22;;
80425;SDS011;69766;51.476;5.704;2023-12-28T08:33:25;11.38;;;2.40;;
80425;SDS011;69766;51.476;5.704;2023-12-28T08:38:50;13.65;;;2.70;;
80425;SDS011;69766;51.476;5.704;2023-12-28T08:41:31;15.27;;;2.67;;
80425;SDS011;69766;51.476;5.704;2023-12-28T08:44:25;13.90;;;2.22;;
80425;SDS011;69766;51.476;5.704;2023-12-28T08:47:20;10.23;;;2.10;;
80425;SDS011;69766;51.476;5.704;2023-12-28T08:50:20;12.90;;;2.88;;
80425;SDS011;69766;51.476;5.704;2023-12-28T08:52:46;10.93;;;2.67;;
80425;SDS011;69766;51.476;5.704;2023-12-28T08:55:24;14.25;;;2.25;;
80425;SDS011;69766;51.476;5.704;2023-12-28T08:57:49;11.32;;;2.72;;
80425;SDS011;69766;51.476;5.704;2023-12-28T09:00:19;10.90;;;2.50;;
80425;SDS011;69766;51.476;5.704;2023-12-28T09:02:48;14.63;;;2.55;;
80425;SDS011;69766;51.476;5.704;2023-12-28T09:05:20;14.20;;;2.47;;
80425;SDS011;69766;51.476;5.704;2023-12-28T09:10:41;13.77;;;2.47;;
80425;SDS011;69766;51.476;5.704;2023-12-28T09:13:18;12.57;;;2.15;;
80425;SDS011;69766;51.476;5.704;2023-12-28T09:15:51;17.40;;;2.35;;
80425;SDS011;69766;51.476;5.704;2023-12-28T09:18:19;18.35;;;3.08;;
80425;SDS011;69766;51.476;5.704;2023-12-28T09:23:36;8.93;;;2.13;;
80425;SDS011;69766;51.476;5.704;2023-12-28T09:26:14;11.05;;;2.47;;
80425;SDS011;69766;51.476;5.704;2023-12-28T09:28:45;10.25;;;1.75;;
80425;SDS011;69766;51.476;5.704;2023-12-28T09:31:17;14.23;;;2.30;;
80425;SDS011;69766;51.476;5.704;2023-12-28T09:33:48;15.13;;;2.00;;
80425;SDS011;69766;51.476;5.704;2023-12-28T09:36:23;11.50;;;2.25;;
80425;SDS011;69766;51.476;5.704;2023-12-28T09:42:34;20.73;;;5.80;;
80425;SDS011;69766;51.476;5.704;2023-12-28T09:45:12;9.30;;;3.03;;
80425;SDS011;69766;51.476;5.704;2023-12-28T09:47:42;17.98;;;6.25;;
80425;SDS011;69766;51.476;5.704;2023-12-28T09:52:51;15.15;;;6.18;;
80425;SDS011;69766;51.476;5.704;2023-12-28T09:55:27;15.52;;;3.42;;
80425;SDS011;69766;51.476;5.704;2023-12-28T10:01:13;12.82;;;2.35;;
80425;SDS011;69766;51.476;5.704;2023-12-28T10:03:50;9.77;;;2.38;;
80425;SDS011;69766;51.476;5.704;2023-12-28T10:09:47;18.10;;;2.90;;
80425;SDS011;69766;51.476;5.704;2023-12-28T10:13:14;14.35;;;2.30;;
80425;SDS011;69766;51.476;5.704;2023-12-28T10:16:15;11.90;;;3.35;;
80425;SDS011;69766;51.476;5.704;2023-12-28T10:27:01;12.98;;;2.33;;
80425;SDS011;69766;51.476;5.704;2023-12-28T10:29:12;8.40;;;1.83;;
80425;SDS011;69766;51.476;5.704;2023-12-28T10:32:24;17.48;;;5.38;;
80425;SDS011;69766;51.476;5.704;2023-12-28T10:35:06;13.02;;;3.92;;
80425;SDS011;69766;51.476;5.704;2023-12-28T10:37:59;16.38;;;3.65;;
80425;SDS011;69766;51.476;5.704;2023-12-28T10:40:49;14.68;;;2.80;;
80425;SDS011;69766;51.476;5.704;2023-12-28T10:43:25;14.55;;;3.05;;
80425;SDS011;69766;51.476;5.704;2023-12-28T10:49:18;12.25;;;2.80;;
80425;SDS011;69766;51.476;5.704;2023-12-28T10:52:35;16.35;;;2.10;;
80425;SDS011;69766;51.476;5.704;2023-12-28T11:01:48;15.30;;;2.50;;
80425;SDS011;69766;51.476;5.704;2023-12-28T11:08:07;13.75;;;2.35;;
80425;SDS011;69766;51.476;5.704;2023-12-28T11:10:44;11.90;;;2.42;;
80425;SDS011;69766;51.476;5.704;2023-12-28T11:13:50;15.30;;;3.33;;
80425;SDS011;69766;51.476;5.704;2023-12-28T11:16:23;17.05;;;2.45;;
80425;SDS011;69766;51.476;5.704;2023-12-28T11:19:04;14.10;;;2.58;;
80425;SDS011;69766;51.476;5.704;2023-12-28T11:21:31;10.38;;;2.15;;
80425;SDS011;69766;51.476;5.704;2023-12-28T11:27:38;15.15;;;2.90;;
80425;SDS011;69766;51.476;5.704;2023-12-28T11:30:16;20.52;;;3.72;;
80425;SDS011;69766;51.476;5.704;2023-12-28T11:35:56;16.77;;;2.83;;
80425;SDS011;69766;51.476;5.704;2023-12-28T11:38:25;12.52;;;2.20;;
80425;SDS011;69766;51.476;5.704;2023-12-28T11:41:03;15.98;;;2.90;;
80425;SDS011;69766;51.476;5.704;2023-12-28T11:50:33;20.17;;;2.63;;
80425;SDS011;69766;51.476;5.704;2023-12-28T11:53:09;16.17;;;3.42;;
80425;SDS011;69766;51.476;5.704;2023-12-28T11:58:55;18.25;;;2.80;;
80425;SDS011;69766;51.476;5.704;2023-12-28T12:05:13;11.48;;;3.17;;
80425;SDS011;69766;51.476;5.704;2023-12-28T12:13:54;16.83;;;3.67;;
80425;SDS011;69766;51.476;5.704;2023-12-28T12:16:58;14.73;;;2.65;;
80425;SDS011;69766;51.476;5.704;2023-12-28T12:19:40;15.20;;;2.65;;
80425;SDS011;69766;51.476;5.704;2023-12-28T12:22:25;14.85;;;2.20;;
80425;SDS011;69766;51.476;5.704;2023-12-28T12:25:18;14.88;;;2.83;;
80425;SDS011;69766;51.476;5.704;2023-12-28T12:27:59;18.58;;;2.95;;
80425;SDS011;69766;51.476;5.704;2023-12-28T12:31:04;11.90;;;2.42;;
80425;SDS011;69766;51.476;5.704;2023-12-28T12:33:56;18.95;;;2.83;;
80425;SDS011;69766;51.476;5.704;2023-12-28T12:36:34;20.02;;;2.55;;
80425;SDS011;69766;51.476;5.704;2023-12-28T12:42:16;12.77;;;1.92;;
80425;SDS011;69766;51.476;5.704;2023-12-28T12:44:41;13.07;;;2.60;;
80425;SDS011;69766;51.476;5.704;2023-12-28T12:47:07;12.85;;;2.42;;
80425;SDS011;69766;51.476;5.704;2023-12-28T12:49:33;15.63;;;2.78;;
80425;SDS011;69766;51.476;5.704;2023-12-28T12:52:01;13.60;;;2.50;;
80425;SDS011;69766;51.476;5.704;2023-12-28T12:54:27;16.67;;;2.42;;
80425;SDS011;69766;51.476;5.704;2023-12-28T12:56:53;16.45;;;3.92;;
80425;SDS011;69766;51.476;5.704;2023-12-28T12:59:19;15.40;;;2.13;;
80425;SDS011;69766;51.476;5.704;2023-12-28T13:01:54;13.35;;;2.50;;
80425;SDS011;69766;51.476;5.704;2023-12-28T13:04:22;15.60;;;2.75;;
80425;SDS011;69766;51.476;5.704;2023-12-28T13:06:50;11.93;;;2.67;;
80425;SDS011;69766;51.476;5.704;2023-12-28T13:09:18;12.38;;;2.30;;
80425;SDS011;69766;51.476;5.704;2023-12-28T13:11:47;20.58;;;2.55;;
80425;SDS011;69766;51.476;5.704;2023-12-28T13:14:16;13.68;;;2.50;;
80425;SDS011;69766;51.476;5.704;2023-12-28T13:16:45;19.27;;;2.10;;
80425;SDS011;69766;51.476;5.704;2023-12-28T13:19:13;11.88;;;2.67;;
80425;SDS011;69766;51.476;5.704;2023-12-28T13:21:40;14.77;;;3.72;;
80425;SDS011;69766;51.476;5.704;2023-12-28T13:24:41;12.02;;;2.58;;
80425;SDS011;69766;51.476;5.704;2023-12-28T13:27:08;12.80;;;2.53;;
80425;SDS011;69766;51.476;5.704;2023-12-28T13:29:35;15.15;;;3.45;;
80425;SDS011;69766;51.476;5.704;2023-12-28T13:32:04;22.52;;;2.72;;
80425;SDS011;69766;51.476;5.704;2023-12-28T13:34:35;11.63;;;2.25;;
80425;SDS011;69766;51.476;5.704;2023-12-28T13:37:04;19.42;;;2.60;;
80425;SDS011;69766;51.476;5.704;2023-12-28T13:39:36;17.58;;;2.78;;
80425;SDS011;69766;51.476;5.704;2023-12-28T13:42:04;12.05;;;2.25;;
80425;SDS011;69766;51.476;5.704;2023-12-28T13:44:32;15.43;;;2.22;;
80425;SDS011;69766;51.476;5.704;2023-12-28T13:47:01;17.38;;;2.53;;
80425;SDS011;69766;51.476;5.704;2023-12-28T13:49:38;14.65;;;2.38;;
80425;SDS011;69766;51.476;5.704;2023-12-28T13:52:04;18.05;;;2.53;;
80425;SDS011;69766;51.476;5.704;2023-12-28T13:54:35;17.60;;;2.30;;
80425;SDS011;69766;51.476;5.704;2023-12-28T13:57:07;10.98;;;3.00;;
80425;SDS011;69766;51.476;5.704;2023-12-28T13:59:41;14.73;;;2.50;;
80425;SDS011;69766;51.476;5.704;2023-12-28T14:02:17;15.27;;;2.30;;
80425;SDS011;69766;51.476;5.704;2023-12-28T14:04:46;17.48;;;2.60;;
80425;SDS011;69766;51.476;5.704;2023-12-28T14:07:12;22.83;;;3.55;;
80425;SDS011;69766;51.476;5.704;2023-12-28T14:09:41;18.13;;;3.97;;
80425;SDS011;69766;51.476;5.704;2023-12-28T14:12:07;14.95;;;3.22;;
80425;SDS011;69766;51.476;5.704;2023-12-28T14:14:32;15.93;;;3.10;;
80425;SDS011;69766;51.476;5.704;2023-12-28T14:16:58;20.08;;;3.63;;
80425;SDS011;69766;51.476;5.704;2023-12-28T14:19:24;21.92;;;4.32;;
80425;SDS011;69766;51.476;5.704;2023-12-28T14:21:52;20.88;;;2.78;;
80425;SDS011;69766;51.476;5.704;2023-12-28T14:24:18;13.25;;;2.80;;
80425;SDS011;69766;51.476;5.704;2023-12-28T14:26:52;18.42;;;2.75;;
80425;SDS011;69766;51.476;5.704;2023-12-28T14:29:19;18.80;;;3.42;;
80425;SDS011;69766;51.476;5.704;2023-12-28T14:31:48;14.05;;;2.75;;
80425;SDS011;69766;51.476;5.704;2023-12-28T14:34:15;16.80;;;2.55;;
80425;SDS011;69766;51.476;5.704;2023-12-28T14:36:41;11.35;;;2.75;;
80425;SDS011;69766;51.476;5.704;2023-12-28T14:39:20;13.10;;;2.63;;
80425;SDS011;69766;51.476;5.704;2023-12-28T14:41:55;12.98;;;3.00;;
80425;SDS011;69766;51.476;5.704;2023-12-28T14:44:27;13.38;;;2.30;;
80425;SDS011;69766;51.476;5.704;2023-12-28T15:04:41;15.75;;;3.92;;
80425;SDS011;69766;51.476;5.704;2023-12-28T15:07:51;16.13;;;4.15;;
80425;SDS011;69766;51.476;5.704;2023-12-28T15:10:45;10.18;;;2.90;;
80425;SDS011;69766;51.476;5.704;2023-12-28T15:13:43;15.43;;;2.88;;
80425;SDS011;69766;51.476;5.704;2023-12-28T15:16:30;20.00;;;3.45;;
80425;SDS011;69766;51.476;5.704;2023-12-28T15:19:11;18.00;;;3.70;;
80425;SDS011;69766;51.476;5.704;2023-12-28T15:21:37;15.77;;;2.63;;
80425;SDS011;69766;51.476;5.704;2023-12-28T15:24:09;17.15;;;2.63;;
80425;SDS011;69766;51.476;5.704;2023-12-28T15:26:46;12.32;;;2.22;;
80425;SDS011;69766;51.476;5.704;2023-12-28T15:29:14;13.05;;;1.98;;
80425;SDS011;69766;51.476;5.704;2023-12-28T15:32:06;11.32;;;1.83;;
80425;SDS011;69766;51.476;5.704;2023-12-28T15:34:32;15.15;;;2.30;;
80425;SDS011;69766;51.476;5.704;2023-12-28T15:37:03;14.75;;;3.05;;
80425;SDS011;69766;51.476;5.704;2023-12-28T15:39:32;12.82;;;2.63;;
80425;SDS011;69766;51.476;5.704;2023-12-28T15:44:48;13.93;;;2.42;;
80425;SDS011;69766;51.476;5.704;2023-12-28T15:47:16;16.10;;;3.08;;
80425;SDS011;69766;51.476;5.704;2023-12-28T15:49:43;17.85;;;3.95;;
80425;SDS011;69766;51.476;5.704;2023-12-28T15:52:18;10.23;;;2.65;;
80425;SDS011;69766;51.476;5.704;2023-12-28T15:58:12;16.63;;;2.28;;
80425;SDS011;69766;51.476;5.704;2023-12-28T16:00:41;12.38;;;3.03;;
80425;SDS011;69766;51.476;5.704;2023-12-28T16:03:08;9.98;;;1.83;;
80425;SDS011;69766;51.476;5.704;2023-12-28T16:05:37;14.52;;;2.60;;
80425;SDS011;69766;51.476;5.704;2023-12-28T16:08:06;13.23;;;2.10;;
80425;SDS011;69766;51.476;5.704;2023-12-28T16:10:34;12.43;;;2.55;;
80425;SDS011;69766;51.476;5.704;2023-12-28T16:13:03;16.58;;;3.00;;
80425;SDS011;69766;51.476;5.704;2023-12-28T16:15:38;13.88;;;2.63;;
80425;SDS011;69766;51.476;5.704;2023-12-28T16:18:09;16.75;;;3.13;;
80425;SDS011;69766;51.476;5.704;2023-12-28T16:20:46;14.43;;;2.40;;
80425;SDS011;69766;51.476;5.704;2023-12-28T16:23:57;13.45;;;3.20;;
80425;SDS011;69766;51.476;5.704;2023-12-28T16:26:25;17.58;;;2.53;;
80425;SDS011;69766;51.476;5.704;2023-12-28T16:28:51;13.55;;;2.33;;
80425;SDS011;69766;51.476;5.704;2023-12-28T16:31:22;19.88;;;6.65;;
80425;SDS011;69766;51.476;5.704;2023-12-28T16:36:28;11.60;;;1.73;;
80425;SDS011;69766;51.476;5.704;2023-12-28T16:38:54;15.02;;;2.55;;
80425;SDS011;69766;51.476;5.704;2023-12-28T16:44:20;11.13;;;1.88;;
80425;SDS011;69766;51.476;5.704;2023-12-28T16:47:05;13.38;;;2.50;;
80425;SDS011;69766;51.476;5.704;2023-12-28T16:49:43;10.02;;;1.95;;
80425;SDS011;69766;51.476;5.704;2023-12-28T16:52:19;12.05;;;1.75;;
80425;SDS011;69766;51.476;5.704;2023-12-28T16:54:45;9.57;;;2.20;;
80425;SDS011;69766;51.476;5.704;2023-12-28T16:57:17;15.45;;;2.35;;
80425;SDS011;69766;51.476;5.704;2023-12-28T16:59:46;12.30;;;2.17;;
80425;SDS011;69766;51.476;5.704;2023-12-28T17:02:14;12.15;;;1.95;;
80425;SDS011;69766;51.476;5.704;2023-12-28T17:04:40;13.00;;;2.15;;
80425;SDS011;69766;51.476;5.704;2023-12-28T17:07:10;13.13;;;3.17;;
80425;SDS011;69766;51.476;5.704;2023-12-28T17:12:31;9.40;;;2.50;;
80425;SDS011;69766;51.476;5.704;2023-12-28T17:15:08;14.05;;;2.60;;
80425;SDS011;69766;51.476;5.704;2023-12-28T17:17:36;9.45;;;2.25;;
80425;SDS011;69766;51.476;5.704;2023-12-28T17:20:06;10.73;;;2.92;;
80425;SDS011;69766;51.476;5.704;2023-12-28T17:28:21;12.75;;;1.42;;
80425;SDS011;69766;51.476;5.704;2023-12-28T17:30:50;12.02;;;1.85;;
80425;SDS011;69766;51.476;5.704;2023-12-28T17:33:23;10.82;;;1.85;;
80425;SDS011;69766;51.476;5.704;2023-12-28T17:35:52;8.52;;;2.30;;
80425;SDS011;69766;51.476;5.704;2023-12-28T17:38:19;13.02;;;2.08;;
80425;SDS011;69766;51.476;5.704;2023-12-28T17:40:45;10.60;;;2.42;;
80425;SDS011;69766;51.476;5.704;2023-12-28T17:48:42;15.25;;;2.30;;
80425;SDS011;69766;51.476;5.704;2023-12-28T17:51:19;6.00;;;1.50;;
80425;SDS011;69766;51.476;5.704;2023-12-28T17:53:53;11.50;;;2.58;;
80425;SDS011;69766;51.476;5.704;2023-12-28T17:56:31;10.38;;;2.17;;
80425;SDS011;69766;51.476;5.704;2023-12-28T17:59:00;7.22;;;2.33;;
80425;SDS011;69766;51.476;5.704;2023-12-28T18:01:29;14.02;;;3.20;;
80425;SDS011;69766;51.476;5.704;2023-12-28T18:03:55;11.68;;;2.47;;
80425;SDS011;69766;51.476;5.704;2023-12-28T18:06:21;14.38;;;2.47;;
80425;SDS011;69766;51.476;5.704;2023-12-28T18:08:51;6.40;;;2.00;;
80425;SDS011;69766;51.476;5.704;2023-12-28T18:11:19;9.77;;;1.98;;
80425;SDS011;69766;51.476;5.704;2023-12-28T18:13:52;12.55;;;1.80;;
80425;SDS011;69766;51.476;5.704;2023-12-28T18:16:24;8.52;;;1.85;;
80425;SDS011;69766;51.476;5.704;2023-12-28T18:18:58;11.90;;;2.40;;
80425;SDS011;69766;51.476;5.704;2023-12-28T18:21:52;15.55;;;2.42;;
80425;SDS011;69766;51.476;5.704;2023-12-28T18:24:21;8.57;;;1.88;;
80425;SDS011;69766;51.476;5.704;2023-12-28T18:26:50;9.75;;;1.70;;
80425;SDS011;69766;51.476;5.704;2023-12-28T18:29:26;10.13;;;2.15;;
80425;SDS011;69766;51.476;5.704;2023-12-28T18:31:52;10.80;;;1.70;;
80425;SDS011;69766;51.476;5.704;2023-12-28T18:34:20;10.55;;;1.65;;
80425;SDS011;69766;51.476;5.704;2023-12-28T18:37:24;7.82;;;2.13;;
80425;SDS011;69766;51.476;5.704;2023-12-28T18:39:55;10.20;;;2.25;;
80425;SDS011;69766;51.476;5.704;2023-12-28T18:42:36;7.88;;;1.55;;
80425;SDS011;69766;51.476;5.704;2023-12-28T18:45:02;15.88;;;3.05;;
80425;SDS011;69766;51.476;5.704;2023-12-28T18:47:52;5.10;;;1.70;;
80425;SDS011;69766;51.476;5.704;2023-12-28T18:50:26;8.65;;;1.63;;
80425;SDS011;69766;51.476;5.704;2023-12-28T18:52:52;8.07;;;2.00;;
80425;SDS011;69766;51.476;5.704;2023-12-28T18:55:21;9.43;;;2.00;;
80425;SDS011;69766;51.476;5.704;2023-12-28T18:58:08;6.32;;;1.88;;
80425;SDS011;69766;51.476;5.704;2023-12-28T19:03:26;9.40;;;1.88;;
80425;SDS011;69766;51.476;5.704;2023-12-28T19:06:04;8.02;;;2.03;;
80425;SDS011;69766;51.476;5.704;2023-12-28T19:08:30;7.43;;;2.50;;
80425;SDS011;69766;51.476;5.704;2023-12-28T19:10:56;10.13;;;2.30;;
80425;SDS011;69766;51.476;5.704;2023-12-28T19:13:24;8.45;;;2.10;;
80425;SDS011;69766;51.476;5.704;2023-12-28T19:15:50;11.15;;;1.98;;
80425;SDS011;69766;51.476;5.704;2023-12-28T19:18:16;13.50;;;2.38;;
80425;SDS011;69766;51.476;5.704;2023-12-28T19:20:48;7.63;;;2.55;;
80425;SDS011;69766;51.476;5.704;2023-12-28T19:23:16;8.55;;;2.40;;
80425;SDS011;69766;51.476;5.704;2023-12-28T19:25:50;12.75;;;2.70;;
80425;SDS011;69766;51.476;5.704;2023-12-28T19:28:21;12.60;;;3.15;;
80425;SDS011;69766;51.476;5.704;2023-12-28T19:30:59;8.18;;;2.08;;
80425;SDS011;69766;51.476;5.704;2023-12-28T19:33:25;7.55;;;1.90;;
80425;SDS011;69766;51.476;5.704;2023-12-28T19:35:51;10.43;;;2.95;;
80425;SDS011;69766;51.476;5.704;2023-12-28T19:38:26;8.73;;;1.85;;
80425;SDS011;69766;51.476;5.704;2023-12-28T19:40:55;8.52;;;2.15;;
80425;SDS011;69766;51.476;5.704;2023-12-28T19:43:24;7.53;;;1.77;;
80425;SDS011;69766;51.476;5.704;2023-12-28T19:45:50;11.60;;;2.50;;
80425;SDS011;69766;51.476;5.704;2023-12-28T19:48:15;19.40;;;4.93;;
80425;SDS011;69766;51.476;5.704;2023-12-28T19:50:46;11.80;;;2.90;;
80425;SDS011;69766;51.476;5.704;2023-12-28T19:53:17;10.27;;;2.60;;
80425;SDS011;69766;51.476;5.704;2023-12-28T19:55:43;7.75;;;2.35;;
80425;SDS011;69766;51.476;5.704;2023-12-28T19:58:54;9.02;;;2.50;;
80425;SDS011;69766;51.476;5.704;2023-12-28T20:04:22;7.47;;;2.30;;